Harvest Peace — V7VE7 — position and weather

sailwx.info

Track history (hours):
 
Tides and Currents Weather Stations Pressure Air Temp Water Temp Dewpoint Dewpoint Depression Visibility Wind Speed Wind Dir Waves Ship Positions

Harvest Peace

Last reported at 2017-Dec-17 20:48 UTC. Time now 2018-Jan-24 05:58 UTC.
Position N 09°11' W 079°52'.
Warning: this ship's position is 37 days out of date.

Length 225 m; draft 11.8 m.

Type: Cargo ship. MMSI: 538004103.

Date/timePositionNaut miles runAvg speedWind from/ knotsBaromVisibWave heightAir tempDewpointWater temp
2017-Dec-17 20:48N 09°11' W 079°52'3 9.5
2017-Dec-17 20:30N 09°12' W 079°54'2 2.8
2017-Dec-17 19:48N 09°13' W 079°56'0 0.0
2017-Dec-17 19:30N 09°13' W 079°56'0 0.0
2017-Dec-17 18:48N 09°13' W 079°56'0 0.0
2017-Dec-17 18:30N 09°13' W 079°56'0 0.0
2017-Dec-17 17:51N 09°13' W 079°56'0 0.0
2017-Dec-17 17:27N 09°13' W 079°56'0 0.0
2017-Dec-17 17:00N 09°13' W 079°56'0 0.0
2017-Dec-17 16:30N 09°13' W 079°56'0 0.0
2017-Dec-17 15:39N 09°13' W 079°56'0 0.1
2017-Dec-17 15:27N 09°13' W 079°56'0 0.0
2017-Dec-17 15:00N 09°13' W 079°56'0 0.1
2017-Dec-17 14:21N 09°13' W 079°56'0 0.0
2017-Dec-17 14:00N 09°13' W 079°56'0 0.0
2017-Dec-17 13:30N 09°13' W 079°56'0 0.1
2017-Dec-17 12:57N 09°13' W 079°56'0 0.1
2017-Dec-17 12:30N 09°13' W 079°56'0 0.0
2017-Dec-17 12:00N 09°13' W 079°56'0 0.1
2017-Dec-17 11:30N 09°13' W 079°56'0 0.1
2017-Dec-17 11:00N 09°13' W 079°56'0 0.0
2017-Dec-17 10:30N 09°13' W 079°56'0 0.0
2017-Dec-17 09:54N 09°13' W 079°56'0 0.1
2017-Dec-17 09:30N 09°13' W 079°56'0 0.1
2017-Dec-17 09:00N 09°13' W 079°56'0 0.1
2017-Dec-17 08:30N 09°13' W 079°56'0 0.5
2017-Dec-17 08:00N 09°13' W 079°56'2 3.3
2017-Dec-17 07:30N 09°15' W 079°55'2 3.3
2017-Dec-17 07:00N 09°16' W 079°55'0 0.3
2017-Dec-17 06:30N 09°16' W 079°55'0 0.3
2017-Dec-17 06:00N 09°17' W 079°55'0 0.3
2017-Dec-17 05:30N 09°17' W 079°55'1 1.4
2017-Dec-17 05:00N 09°17' W 079°55'3 5.3
2017-Dec-17 04:30N 09°20' W 079°55'3 6.8
2017-Dec-17 04:00N 09°24' W 079°55'3 6.2
2017-Dec-17 03:30N 09°27' W 079°55'3 6.7
2017-Dec-17 03:01N 09°30' W 079°56'0 0.7
2017-Dec-17 02:28N 09°30' W 079°56'0 0.1
2017-Dec-17 01:58N 09°30' W 079°56'0 0.0
2017-Dec-17 01:28N 09°30' W 079°56'0 0.1
2017-Dec-17 00:55N 09°30' W 079°56'0 0.0
2017-Dec-17 00:28N 09°30' W 079°56'0 0.1
2017-Dec-16 23:58N 09°30' W 079°56'0 0.0
2017-Dec-16 23:28N 09°30' W 079°56'0 0.0
2017-Dec-16 22:58N 09°30' W 079°56'0 0.0
2017-Dec-16 22:28N 09°30' W 079°56'0 0.0
2017-Dec-16 21:58N 09°30' W 079°56'0 0.0
2017-Dec-16 21:28N 09°30' W 079°56'0 0.0
2017-Dec-16 20:58N 09°30' W 079°56'0 0.0
2017-Dec-16 20:28N 09°30' W 079°56'0 0.0
2017-Dec-16 19:58N 09°30' W 079°56'0 0.0
2017-Dec-16 19:25N 09°30' W 079°56'0 0.0
2017-Dec-16 18:58N 09°30' W 079°56'0 0.1
2017-Dec-16 18:28N 09°30' W 079°56'0 0.0
2017-Dec-16 17:58N 09°30' W 079°56'0 0.0
2017-Dec-16 17:28N 09°30' W 079°56'0 0.0
2017-Dec-16 16:58N 09°30' W 079°56'0 0.0
2017-Dec-16 16:28N 09°30' W 079°56'0 0.1
2017-Dec-16 15:58N 09°30' W 079°56'0 0.0
2017-Dec-16 15:28N 09°30' W 079°56'0 0.0
2017-Dec-16 14:55N 09°30' W 079°56'0 0.0
2017-Dec-16 14:28N 09°30' W 079°56'0 0.0
2017-Dec-16 13:58N 09°30' W 079°56'0 0.0
2017-Dec-16 13:25N 09°30' W 079°56'0 0.0
2017-Dec-16 12:58N 09°30' W 079°56'0 0.0
2017-Dec-16 12:25N 09°30' W 079°56'0 0.0
2017-Dec-16 11:55N 09°30' W 079°56'0 0.0
2017-Dec-16 11:28N 09°30' W 079°56'0 0.0
2017-Dec-16 10:55N 09°30' W 079°56'0 0.0
2017-Dec-16 10:28N 09°30' W 079°56'0 0.0
2017-Dec-16 09:58N 09°30' W 079°56'0 0.0
2017-Dec-16 09:28N 09°30' W 079°56'0 0.0
2017-Dec-16 08:58N 09°30' W 079°56'0 0.0
2017-Dec-16 08:28N 09°30' W 079°56'0 0.0
2017-Dec-16 07:55N 09°30' W 079°56'0 0.1
2017-Dec-16 07:28N 09°30' W 079°56'0 0.0
2017-Dec-16 06:58N 09°30' W 079°56'0 0.0
2017-Dec-16 06:28N 09°30' W 079°56'0 0.0
2017-Dec-16 05:55N 09°30' W 079°56'0 0.0
2017-Dec-16 05:28N 09°30' W 079°56'0 0.0
2017-Dec-16 04:58N 09°30' W 079°56'0 0.0
2017-Dec-16 04:28N 09°30' W 079°56'0 0.0
2017-Dec-16 03:58N 09°30' W 079°56'0 0.0
2017-Dec-16 03:28N 09°30' W 079°56'0 0.0
2017-Dec-16 02:58N 09°30' W 079°56'0 0.0
2017-Dec-16 02:28N 09°30' W 079°56'0 0.0
2017-Dec-16 01:58N 09°30' W 079°56'0 0.0
2017-Dec-16 01:28N 09°30' W 079°56'0 0.0
2017-Dec-16 00:58N 09°30' W 079°56'0 0.0
2017-Dec-16 00:28N 09°30' W 079°56'0 0.0
2017-Dec-15 23:55N 09°30' W 079°56'0 0.0
2017-Dec-15 23:28N 09°30' W 079°56'0 0.0
2017-Dec-15 22:58N 09°30' W 079°56'0 0.0
2017-Dec-15 22:28N 09°30' W 079°56'0 0.0
2017-Dec-15 21:58N 09°30' W 079°56'0 0.0
2017-Dec-15 21:28N 09°30' W 079°56'0 0.0
2017-Dec-15 20:58N 09°30' W 079°56'0 0.0
2017-Dec-15 20:28N 09°30' W 079°56'0 0.0
2017-Dec-15 19:58N 09°30' W 079°56'0 0.0
2017-Dec-15 19:28N 09°30' W 079°56'0 0.0
2017-Dec-15 18:58N 09°30' W 079°56'0 0.0
2017-Dec-15 18:28N 09°30' W 079°56'0 0.0
2017-Dec-15 17:58N 09°30' W 079°56'0 0.0
2017-Dec-15 17:28N 09°30' W 079°56'0 0.0
2017-Dec-15 16:58N 09°30' W 079°56'0 0.0
2017-Dec-15 16:28N 09°30' W 079°56'0 0.0
2017-Dec-15 15:58N 09°30' W 079°56'0 0.0
2017-Dec-15 15:28N 09°30' W 079°56'0 0.0
2017-Dec-15 14:58N 09°30' W 079°56'0 0.0
2017-Dec-15 14:28N 09°30' W 079°56'0 0.0
2017-Dec-15 13:58N 09°30' W 079°56'0 0.0
2017-Dec-15 13:28N 09°30' W 079°56'0 0.0
2017-Dec-15 12:58N 09°30' W 079°56'0 0.0
2017-Dec-15 12:28N 09°30' W 079°56'0 0.0
2017-Dec-15 11:58N 09°30' W 079°56'0 0.0
2017-Dec-15 11:28N 09°30' W 079°56'0 0.0
2017-Dec-15 10:58N 09°30' W 079°56'0 0.0
2017-Dec-15 10:28N 09°30' W 079°56'0 0.0
2017-Dec-15 09:58N 09°30' W 079°56'0 0.0
2017-Dec-15 09:28N 09°30' W 079°56'0 0.0
2017-Dec-15 08:58N 09°30' W 079°56'0 0.0
2017-Dec-15 08:28N 09°30' W 079°56'0 0.0
2017-Dec-15 07:58N 09°30' W 079°56'0 0.0
2017-Dec-15 07:28N 09°30' W 079°56'0 0.0
2017-Dec-15 06:58N 09°30' W 079°56'0 0.0
2017-Dec-15 06:28N 09°30' W 079°56'0 0.0
2017-Dec-15 05:58N 09°30' W 079°56'0 0.0
2017-Dec-15 05:25N 09°30' W 079°56'0 0.0
2017-Dec-15 04:58N 09°30' W 079°56'0 0.0
2017-Dec-15 04:28N 09°30' W 079°56'0 0.0
2017-Dec-15 03:58N 09°30' W 079°56'2 1.4
2017-Dec-15 02:31N 09°31' W 079°54'10 6.5
2017-Dec-15 00:58N 09°41' W 079°51'216 9.7
2017-Dec-14 02:38N 10°48' W 076°22'211.7
2017-Dec-14 02:27N 10°48' W 076°20'611.8
2017-Dec-14 01:55N 10°50' W 076°14'611.7
2017-Dec-14 01:24N 10°52' W 076°08'811.7
2017-Dec-14 00:44N 10°54' W 076°00'611.7
2017-Dec-14 00:14N 10°55' W 075°55'811.5
2017-Dec-13 23:34N 10°58' W 075°47'111.4
2017-Dec-13 23:30N 10°58' W 075°46'711.0
2017-Dec-13 22:50N 11°00' W 075°39'411.0
2017-Dec-13 22:29N 11°01' W 075°35'3811.2
2017-Dec-13 19:02N 11°12' W 074°58'211.1
2017-Dec-13 18:54N 11°13' W 074°56'510.9
2017-Dec-13 18:29N 11°14' W 074°52'510.5
2017-Dec-13 18:00N 11°15' W 074°47'34 2.0
2017-Dec-13 01:12N 11°05' W 074°14'0 0.0
2017-Dec-13 00:51N 11°05' W 074°14'0 0.0
2017-Dec-13 00:00N 11°05' W 074°14'0 0.0
2017-Dec-12 23:27N 11°05' W 074°14'5 0.2
2017-Dec-12 03:28N 11°08' W 074°17'7 5.3
2017-Dec-12 02:10N 11°14' W 074°14'0 0.4
2017-Dec-12 01:43N 11°15' W 074°14'9 5.0
2017-Dec-12 00:00N 11°21' W 074°20'710.4
2017-Dec-11 23:21N 11°27' W 074°21'3 7.3
2017-Dec-11 22:59N 11°30' W 074°20'511.0
2017-Dec-11 22:30N 11°33' W 074°15'611.9
2017-Dec-11 22:00N 11°35' W 074°10'712.0
2017-Dec-11 21:23N 11°39' W 074°03'  
2017-Dec-09 12:53N 14°13' W 061°11'614.5
2017-Dec-09 12:30N 14°14' W 061°06'714.8
2017-Dec-09 12:00N 14°15' W 060°58'813.9
2017-Dec-09 11:27N 14°16' W 060°50'613.5
2017-Dec-09 11:00N 14°16' W 060°44'613.0
2017-Dec-09 10:30N 14°17' W 060°37'  
Track history (hours):
 
Tides and Currents Weather Stations Pressure Air Temp Water Temp Dewpoint Dewpoint Depression Visibility Wind Speed Wind Dir Waves Ship Positions

Harvest Peace

Last reported at 2017-Dec-17 20:48 UTC. Time now 2018-Jan-24 05:58 UTC.
Position N 09°11' W 079°52'.
Warning: this ship's position is 37 days out of date.

Length 225 m; draft 11.8 m.

Type: Cargo ship. MMSI: 538004103.

Date/timePositionNaut miles runAvg speedWind from/ knotsBaromVisibWave heightAir tempDewpointWater temp
2017-Dec-17 20:48N 09°11' W 079°52'3 9.5
2017-Dec-17 20:30N 09°12' W 079°54'2 2.8
2017-Dec-17 19:48N 09°13' W 079°56'0 0.0
2017-Dec-17 19:30N 09°13' W 079°56'0 0.0
2017-Dec-17 18:48N 09°13' W 079°56'0 0.0
2017-Dec-17 18:30N 09°13' W 079°56'0 0.0
2017-Dec-17 17:51N 09°13' W 079°56'0 0.0
2017-Dec-17 17:27N 09°13' W 079°56'0 0.0
2017-Dec-17 17:00N 09°13' W 079°56'0 0.0
2017-Dec-17 16:30N 09°13' W 079°56'0 0.0
2017-Dec-17 15:39N 09°13' W 079°56'0 0.1
2017-Dec-17 15:27N 09°13' W 079°56'0 0.0
2017-Dec-17 15:00N 09°13' W 079°56'0 0.1
2017-Dec-17 14:21N 09°13' W 079°56'0 0.0
2017-Dec-17 14:00N 09°13' W 079°56'0 0.0
2017-Dec-17 13:30N 09°13' W 079°56'0 0.1
2017-Dec-17 12:57N 09°13' W 079°56'0 0.1
2017-Dec-17 12:30N 09°13' W 079°56'0 0.0
2017-Dec-17 12:00N 09°13' W 079°56'0 0.1
2017-Dec-17 11:30N 09°13' W 079°56'0 0.1
2017-Dec-17 11:00N 09°13' W 079°56'0 0.0
2017-Dec-17 10:30N 09°13' W 079°56'0 0.0
2017-Dec-17 09:54N 09°13' W 079°56'0 0.1
2017-Dec-17 09:30N 09°13' W 079°56'0 0.1
2017-Dec-17 09:00N 09°13' W 079°56'0 0.1
2017-Dec-17 08:30N 09°13' W 079°56'0 0.5
2017-Dec-17 08:00N 09°13' W 079°56'2 3.3
2017-Dec-17 07:30N 09°15' W 079°55'2 3.3
2017-Dec-17 07:00N 09°16' W 079°55'0 0.3
2017-Dec-17 06:30N 09°16' W 079°55'0 0.3
2017-Dec-17 06:00N 09°17' W 079°55'0 0.3
2017-Dec-17 05:30N 09°17' W 079°55'1 1.4
2017-Dec-17 05:00N 09°17' W 079°55'3 5.3
2017-Dec-17 04:30N 09°20' W 079°55'3 6.8
2017-Dec-17 04:00N 09°24' W 079°55'3 6.2
2017-Dec-17 03:30N 09°27' W 079°55'3 6.7
2017-Dec-17 03:01N 09°30' W 079°56'0 0.7
2017-Dec-17 02:28N 09°30' W 079°56'0 0.1
2017-Dec-17 01:58N 09°30' W 079°56'0 0.0
2017-Dec-17 01:28N 09°30' W 079°56'0 0.1
2017-Dec-17 00:55N 09°30' W 079°56'0 0.0
2017-Dec-17 00:28N 09°30' W 079°56'0 0.1
2017-Dec-16 23:58N 09°30' W 079°56'0 0.0
2017-Dec-16 23:28N 09°30' W 079°56'0 0.0
2017-Dec-16 22:58N 09°30' W 079°56'0 0.0
2017-Dec-16 22:28N 09°30' W 079°56'0 0.0
2017-Dec-16 21:58N 09°30' W 079°56'0 0.0
2017-Dec-16 21:28N 09°30' W 079°56'0 0.0
2017-Dec-16 20:58N 09°30' W 079°56'0 0.0
2017-Dec-16 20:28N 09°30' W 079°56'0 0.0
2017-Dec-16 19:58N 09°30' W 079°56'0 0.0
2017-Dec-16 19:25N 09°30' W 079°56'0 0.0
2017-Dec-16 18:58N 09°30' W 079°56'0 0.1
2017-Dec-16 18:28N 09°30' W 079°56'0 0.0
2017-Dec-16 17:58N 09°30' W 079°56'0 0.0
2017-Dec-16 17:28N 09°30' W 079°56'0 0.0
2017-Dec-16 16:58N 09°30' W 079°56'0 0.0
2017-Dec-16 16:28N 09°30' W 079°56'0 0.1
2017-Dec-16 15:58N 09°30' W 079°56'0 0.0
2017-Dec-16 15:28N 09°30' W 079°56'0 0.0
2017-Dec-16 14:55N 09°30' W 079°56'0 0.0
2017-Dec-16 14:28N 09°30' W 079°56'0 0.0
2017-Dec-16 13:58N 09°30' W 079°56'0 0.0
2017-Dec-16 13:25N 09°30' W 079°56'0 0.0
2017-Dec-16 12:58N 09°30' W 079°56'0 0.0
2017-Dec-16 12:25N 09°30' W 079°56'0 0.0
2017-Dec-16 11:55N 09°30' W 079°56'0 0.0
2017-Dec-16 11:28N 09°30' W 079°56'0 0.0
2017-Dec-16 10:55N 09°30' W 079°56'0 0.0
2017-Dec-16 10:28N 09°30' W 079°56'0 0.0
2017-Dec-16 09:58N 09°30' W 079°56'0 0.0
2017-Dec-16 09:28N 09°30' W 079°56'0 0.0
2017-Dec-16 08:58N 09°30' W 079°56'0 0.0
2017-Dec-16 08:28N 09°30' W 079°56'0 0.0
2017-Dec-16 07:55N 09°30' W 079°56'0 0.1
2017-Dec-16 07:28N 09°30' W 079°56'0 0.0
2017-Dec-16 06:58N 09°30' W 079°56'0 0.0
2017-Dec-16 06:28N 09°30' W 079°56'0 0.0
2017-Dec-16 05:55N 09°30' W 079°56'0 0.0
2017-Dec-16 05:28N 09°30' W 079°56'0 0.0
2017-Dec-16 04:58N 09°30' W 079°56'0 0.0
2017-Dec-16 04:28N 09°30' W 079°56'0 0.0
2017-Dec-16 03:58N 09°30' W 079°56'0 0.0
2017-Dec-16 03:28N 09°30' W 079°56'0 0.0
2017-Dec-16 02:58N 09°30' W 079°56'0 0.0
2017-Dec-16 02:28N 09°30' W 079°56'0 0.0
2017-Dec-16 01:58N 09°30' W 079°56'0 0.0
2017-Dec-16 01:28N 09°30' W 079°56'0 0.0
2017-Dec-16 00:58N 09°30' W 079°56'0 0.0
2017-Dec-16 00:28N 09°30' W 079°56'0 0.0
2017-Dec-15 23:55N 09°30' W 079°56'0 0.0
2017-Dec-15 23:28N 09°30' W 079°56'0 0.0
2017-Dec-15 22:58N 09°30' W 079°56'0 0.0
2017-Dec-15 22:28N 09°30' W 079°56'0 0.0
2017-Dec-15 21:58N 09°30' W 079°56'0 0.0
2017-Dec-15 21:28N 09°30' W 079°56'0 0.0
2017-Dec-15 20:58N 09°30' W 079°56'0 0.0
2017-Dec-15 20:28N 09°30' W 079°56'0 0.0
2017-Dec-15 19:58N 09°30' W 079°56'0 0.0
2017-Dec-15 19:28N 09°30' W 079°56'0 0.0
2017-Dec-15 18:58N 09°30' W 079°56'0 0.0
2017-Dec-15 18:28N 09°30' W 079°56'0 0.0
2017-Dec-15 17:58N 09°30' W 079°56'0 0.0
2017-Dec-15 17:28N 09°30' W 079°56'0 0.0
2017-Dec-15 16:58N 09°30' W 079°56'0 0.0
2017-Dec-15 16:28N 09°30' W 079°56'0 0.0
2017-Dec-15 15:58N 09°30' W 079°56'0 0.0
2017-Dec-15 15:28N 09°30' W 079°56'0 0.0
2017-Dec-15 14:58N 09°30' W 079°56'0 0.0
2017-Dec-15 14:28N 09°30' W 079°56'0 0.0
2017-Dec-15 13:58N 09°30' W 079°56'0 0.0
2017-Dec-15 13:28N 09°30' W 079°56'0 0.0
2017-Dec-15 12:58N 09°30' W 079°56'0 0.0
2017-Dec-15 12:28N 09°30' W 079°56'0 0.0
2017-Dec-15 11:58N 09°30' W 079°56'0 0.0
2017-Dec-15 11:28N 09°30' W 079°56'0 0.0
2017-Dec-15 10:58N 09°30' W 079°56'0 0.0
2017-Dec-15 10:28N 09°30' W 079°56'0 0.0
2017-Dec-15 09:58N 09°30' W 079°56'0 0.0
2017-Dec-15 09:28N 09°30' W 079°56'0 0.0
2017-Dec-15 08:58N 09°30' W 079°56'0 0.0
2017-Dec-15 08:28N 09°30' W 079°56'0 0.0
2017-Dec-15 07:58N 09°30' W 079°56'0 0.0
2017-Dec-15 07:28N 09°30' W 079°56'0 0.0
2017-Dec-15 06:58N 09°30' W 079°56'0 0.0
2017-Dec-15 06:28N 09°30' W 079°56'0 0.0
2017-Dec-15 05:58N 09°30' W 079°56'0 0.0
2017-Dec-15 05:25N 09°30' W 079°56'0 0.0
2017-Dec-15 04:58N 09°30' W 079°56'0 0.0
2017-Dec-15 04:28N 09°30' W 079°56'0 0.0
2017-Dec-15 03:58N 09°30' W 079°56'2 1.4
2017-Dec-15 02:31N 09°31' W 079°54'10 6.5
2017-Dec-15 00:58N 09°41' W 079°51'216 9.7
2017-Dec-14 02:38N 10°48' W 076°22'211.7
2017-Dec-14 02:27N 10°48' W 076°20'611.8
2017-Dec-14 01:55N 10°50' W 076°14'611.7
2017-Dec-14 01:24N 10°52' W 076°08'811.7
2017-Dec-14 00:44N 10°54' W 076°00'611.7
2017-Dec-14 00:14N 10°55' W 075°55'811.5
2017-Dec-13 23:34N 10°58' W 075°47'111.4
2017-Dec-13 23:30N 10°58' W 075°46'711.0
2017-Dec-13 22:50N 11°00' W 075°39'411.0
2017-Dec-13 22:29N 11°01' W 075°35'3811.2
2017-Dec-13 19:02N 11°12' W 074°58'211.1
2017-Dec-13 18:54N 11°13' W 074°56'510.9
2017-Dec-13 18:29N 11°14' W 074°52'510.5
2017-Dec-13 18:00N 11°15' W 074°47'34 2.0
2017-Dec-13 01:12N 11°05' W 074°14'0 0.0
2017-Dec-13 00:51N 11°05' W 074°14'0 0.0
2017-Dec-13 00:00N 11°05' W 074°14'0 0.0
2017-Dec-12 23:27N 11°05' W 074°14'5 0.2
2017-Dec-12 03:28N 11°08' W 074°17'7 5.3
2017-Dec-12 02:10N 11°14' W 074°14'0 0.4
2017-Dec-12 01:43N 11°15' W 074°14'9 5.0
2017-Dec-12 00:00N 11°21' W 074°20'710.4
2017-Dec-11 23:21N 11°27' W 074°21'3 7.3
2017-Dec-11 22:59N 11°30' W 074°20'511.0
2017-Dec-11 22:30N 11°33' W 074°15'611.9
2017-Dec-11 22:00N 11°35' W 074°10'712.0
2017-Dec-11 21:23N 11°39' W 074°03'  
2017-Dec-09 12:53N 14°13' W 061°11'614.5
2017-Dec-09 12:30N 14°14' W 061°06'714.8
2017-Dec-09 12:00N 14°15' W 060°58'813.9
2017-Dec-09 11:27N 14°16' W 060°50'613.5
2017-Dec-09 11:00N 14°16' W 060°44'613.0
2017-Dec-09 10:30N 14°17' W 060°37'  

Dump ship's entire track history